sensor_id;sensor_type;location;lat;lon;timestamp;P1;durP1;ratioP1;P2;durP2;ratioP2
19903;SDS011;10114;50.970;4.962;2024-01-15T00:02:13;10.20;;;3.28;;
19903;SDS011;10114;50.970;4.962;2024-01-15T00:04:40;9.25;;;3.53;;
19903;SDS011;10114;50.970;4.962;2024-01-15T00:07:06;10.93;;;3.90;;
19903;SDS011;10114;50.970;4.962;2024-01-15T00:09:32;12.68;;;3.95;;
19903;SDS011;10114;50.970;4.962;2024-01-15T00:11:59;13.80;;;4.00;;
19903;SDS011;10114;50.970;4.962;2024-01-15T00:14:25;9.20;;;4.20;;
19903;SDS011;10114;50.970;4.962;2024-01-15T00:16:51;10.85;;;3.78;;
19903;SDS011;10114;50.970;4.962;2024-01-15T00:19:17;19.45;;;5.53;;
19903;SDS011;10114;50.970;4.962;2024-01-15T00:21:44;14.10;;;3.38;;
19903;SDS011;10114;50.970;4.962;2024-01-15T00:24:10;13.85;;;3.65;;
19903;SDS011;10114;50.970;4.962;2024-01-15T00:26:37;11.18;;;3.30;;
19903;SDS011;10114;50.970;4.962;2024-01-15T00:29:03;6.55;;;2.65;;
19903;SDS011;10114;50.970;4.962;2024-01-15T00:31:30;8.15;;;3.53;;
19903;SDS011;10114;50.970;4.962;2024-01-15T00:33:56;5.32;;;2.92;;
19903;SDS011;10114;50.970;4.962;2024-01-15T00:36:25;8.55;;;3.15;;
19903;SDS011;10114;50.970;4.962;2024-01-15T00:38:52;7.40;;;2.70;;
19903;SDS011;10114;50.970;4.962;2024-01-15T00:41:19;7.93;;;3.22;;
19903;SDS011;10114;50.970;4.962;2024-01-15T00:43:45;7.25;;;3.08;;
19903;SDS011;10114;50.970;4.962;2024-01-15T00:46:11;5.82;;;2.97;;
19903;SDS011;10114;50.970;4.962;2024-01-15T00:48:37;5.00;;;2.50;;
19903;SDS011;10114;50.970;4.962;2024-01-15T00:51:04;9.80;;;2.75;;
19903;SDS011;10114;50.970;4.962;2024-01-15T00:53:30;7.75;;;3.40;;
19903;SDS011;10114;50.970;4.962;2024-01-15T00:55:56;8.45;;;3.42;;
19903;SDS011;10114;50.970;4.962;2024-01-15T00:58:22;7.65;;;3.20;;
19903;SDS011;10114;50.970;4.962;2024-01-15T01:00:48;12.27;;;3.75;;
19903;SDS011;10114;50.970;4.962;2024-01-15T01:03:14;9.63;;;2.88;;
19903;SDS011;10114;50.970;4.962;2024-01-15T01:05:40;8.82;;;3.50;;
19903;SDS011;10114;50.970;4.962;2024-01-15T01:08:06;7.22;;;3.05;;
19903;SDS011;10114;50.970;4.962;2024-01-15T01:10:32;6.07;;;3.08;;
19903;SDS011;10114;50.970;4.962;2024-01-15T01:12:58;7.43;;;2.95;;
19903;SDS011;10114;50.970;4.962;2024-01-15T01:15:24;5.13;;;2.10;;
19903;SDS011;10114;50.970;4.962;2024-01-15T01:17:50;7.75;;;3.25;;
19903;SDS011;10114;50.970;4.962;2024-01-15T01:20:16;7.55;;;2.83;;
19903;SDS011;10114;50.970;4.962;2024-01-15T01:22:42;6.97;;;3.10;;
19903;SDS011;10114;50.970;4.962;2024-01-15T01:25:08;8.98;;;2.30;;
19903;SDS011;10114;50.970;4.962;2024-01-15T01:27:35;9.15;;;3.33;;
19903;SDS011;10114;50.970;4.962;2024-01-15T01:30:01;7.85;;;3.10;;
19903;SDS011;10114;50.970;4.962;2024-01-15T01:32:28;7.63;;;2.38;;
19903;SDS011;10114;50.970;4.962;2024-01-15T01:34:54;8.43;;;2.10;;
19903;SDS011;10114;50.970;4.962;2024-01-15T01:37:20;10.52;;;4.10;;
19903;SDS011;10114;50.970;4.962;2024-01-15T01:39:46;4.10;;;2.28;;
19903;SDS011;10114;50.970;4.962;2024-01-15T01:42:12;6.63;;;3.42;;
19903;SDS011;10114;50.970;4.962;2024-01-15T01:44:38;5.55;;;2.53;;
19903;SDS011;10114;50.970;4.962;2024-01-15T01:47:04;7.20;;;2.47;;
19903;SDS011;10114;50.970;4.962;2024-01-15T01:49:31;3.72;;;2.08;;
19903;SDS011;10114;50.970;4.962;2024-01-15T01:51:58;6.82;;;2.50;;
19903;SDS011;10114;50.970;4.962;2024-01-15T01:54:24;6.50;;;1.85;;
19903;SDS011;10114;50.970;4.962;2024-01-15T01:56:51;5.25;;;2.00;;
19903;SDS011;10114;50.970;4.962;2024-01-15T01:59:17;7.75;;;3.00;;
19903;SDS011;10114;50.970;4.962;2024-01-15T02:01:44;4.55;;;2.60;;
19903;SDS011;10114;50.970;4.962;2024-01-15T02:04:11;4.30;;;1.90;;
19903;SDS011;10114;50.970;4.962;2024-01-15T02:06:37;6.30;;;2.13;;
19903;SDS011;10114;50.970;4.962;2024-01-15T02:09:03;4.25;;;1.70;;
19903;SDS011;10114;50.970;4.962;2024-01-15T02:11:30;5.50;;;2.03;;
19903;SDS011;10114;50.970;4.962;2024-01-15T02:13:56;6.18;;;2.83;;
19903;SDS011;10114;50.970;4.962;2024-01-15T02:16:22;6.82;;;2.17;;
19903;SDS011;10114;50.970;4.962;2024-01-15T02:18:49;3.05;;;1.50;;
19903;SDS011;10114;50.970;4.962;2024-01-15T02:21:15;3.85;;;1.83;;
19903;SDS011;10114;50.970;4.962;2024-01-15T02:23:41;6.13;;;2.20;;
19903;SDS011;10114;50.970;4.962;2024-01-15T02:26:07;5.82;;;2.17;;
19903;SDS011;10114;50.970;4.962;2024-01-15T02:28:33;6.28;;;1.95;;
19903;SDS011;10114;50.970;4.962;2024-01-15T02:30:59;4.03;;;1.85;;
19903;SDS011;10114;50.970;4.962;2024-01-15T02:33:26;4.75;;;2.15;;
19903;SDS011;10114;50.970;4.962;2024-01-15T02:35:52;2.47;;;1.52;;
19903;SDS011;10114;50.970;4.962;2024-01-15T02:38:18;2.97;;;1.50;;
19903;SDS011;10114;50.970;4.962;2024-01-15T02:40:44;2.42;;;1.55;;
19903;SDS011;10114;50.970;4.962;2024-01-15T02:43:10;4.43;;;1.80;;
19903;SDS011;10114;50.970;4.962;2024-01-15T02:45:38;3.10;;;1.88;;
19903;SDS011;10114;50.970;4.962;2024-01-15T02:48:04;4.28;;;1.52;;
19903;SDS011;10114;50.970;4.962;2024-01-15T02:50:30;2.65;;;1.23;;
19903;SDS011;10114;50.970;4.962;2024-01-15T02:52:56;4.63;;;1.67;;
19903;SDS011;10114;50.970;4.962;2024-01-15T02:55:22;4.13;;;1.98;;
19903;SDS011;10114;50.970;4.962;2024-01-15T02:57:48;4.78;;;2.03;;
19903;SDS011;10114;50.970;4.962;2024-01-15T03:00:15;2.58;;;1.60;;
19903;SDS011;10114;50.970;4.962;2024-01-15T03:02:41;2.30;;;1.55;;
19903;SDS011;10114;50.970;4.962;2024-01-15T03:05:10;2.92;;;1.38;;
19903;SDS011;10114;50.970;4.962;2024-01-15T03:07:36;6.40;;;1.75;;
19903;SDS011;10114;50.970;4.962;2024-01-15T03:10:02;2.65;;;0.85;;
19903;SDS011;10114;50.970;4.962;2024-01-15T03:12:28;1.58;;;1.10;;
19903;SDS011;10114;50.970;4.962;2024-01-15T03:14:54;7.47;;;1.77;;
19903;SDS011;10114;50.970;4.962;2024-01-15T03:17:20;4.10;;;1.55;;
19903;SDS011;10114;50.970;4.962;2024-01-15T03:19:46;2.75;;;2.03;;
19903;SDS011;10114;50.970;4.962;2024-01-15T03:22:14;8.70;;;1.45;;
19903;SDS011;10114;50.970;4.962;2024-01-15T03:24:40;2.38;;;1.00;;
19903;SDS011;10114;50.970;4.962;2024-01-15T03:27:06;1.35;;;1.20;;
19903;SDS011;10114;50.970;4.962;2024-01-15T03:29:32;3.58;;;1.30;;
19903;SDS011;10114;50.970;4.962;2024-01-15T03:31:59;2.15;;;1.00;;
19903;SDS011;10114;50.970;4.962;2024-01-15T03:34:25;3.42;;;0.95;;
19903;SDS011;10114;50.970;4.962;2024-01-15T03:36:51;1.02;;;0.80;;
19903;SDS011;10114;50.970;4.962;2024-01-15T03:39:17;3.75;;;1.33;;
19903;SDS011;10114;50.970;4.962;2024-01-15T03:41:43;2.60;;;1.38;;
19903;SDS011;10114;50.970;4.962;2024-01-15T03:44:09;2.05;;;1.05;;
19903;SDS011;10114;50.970;4.962;2024-01-15T03:46:35;1.55;;;1.08;;
19903;SDS011;10114;50.970;4.962;2024-01-15T03:49:01;7.82;;;1.10;;
19903;SDS011;10114;50.970;4.962;2024-01-15T03:51:27;0.50;;;0.50;;
19903;SDS011;10114;50.970;4.962;2024-01-15T03:53:53;1.15;;;0.77;;
19903;SDS011;10114;50.970;4.962;2024-01-15T03:56:19;1.17;;;0.80;;
19903;SDS011;10114;50.970;4.962;2024-01-15T03:58:45;2.25;;;1.60;;
19903;SDS011;10114;50.970;4.962;2024-01-15T04:01:11;1.83;;;1.00;;
19903;SDS011;10114;50.970;4.962;2024-01-15T04:03:37;1.40;;;1.02;;
19903;SDS011;10114;50.970;4.962;2024-01-15T04:06:03;1.55;;;1.08;;
19903;SDS011;10114;50.970;4.962;2024-01-15T04:08:30;2.30;;;1.08;;
19903;SDS011;10114;50.970;4.962;2024-01-15T04:10:56;1.10;;;0.60;;
19903;SDS011;10114;50.970;4.962;2024-01-15T04:13:22;1.85;;;1.08;;
19903;SDS011;10114;50.970;4.962;2024-01-15T04:15:48;1.38;;;0.70;;
19903;SDS011;10114;50.970;4.962;2024-01-15T04:18:15;1.73;;;0.95;;
19903;SDS011;10114;50.970;4.962;2024-01-15T04:20:42;2.53;;;1.67;;
19903;SDS011;10114;50.970;4.962;2024-01-15T04:23:08;4.85;;;2.10;;
19903;SDS011;10114;50.970;4.962;2024-01-15T04:25:34;3.00;;;1.63;;
19903;SDS011;10114;50.970;4.962;2024-01-15T04:28:01;6.15;;;1.67;;
19903;SDS011;10114;50.970;4.962;2024-01-15T04:30:27;1.90;;;1.30;;
19903;SDS011;10114;50.970;4.962;2024-01-15T04:32:53;2.97;;;1.45;;
19903;SDS011;10114;50.970;4.962;2024-01-15T04:35:18;2.63;;;1.45;;
19903;SDS011;10114;50.970;4.962;2024-01-15T04:37:45;3.47;;;1.20;;
19903;SDS011;10114;50.970;4.962;2024-01-15T04:40:11;2.08;;;1.15;;
19903;SDS011;10114;50.970;4.962;2024-01-15T04:42:37;2.28;;;1.33;;
19903;SDS011;10114;50.970;4.962;2024-01-15T04:45:03;2.47;;;1.33;;
19903;SDS011;10114;50.970;4.962;2024-01-15T04:47:29;4.40;;;1.70;;
19903;SDS011;10114;50.970;4.962;2024-01-15T04:49:55;2.75;;;1.73;;
19903;SDS011;10114;50.970;4.962;2024-01-15T04:52:21;3.78;;;1.52;;
19903;SDS011;10114;50.970;4.962;2024-01-15T04:54:48;3.58;;;2.50;;
19903;SDS011;10114;50.970;4.962;2024-01-15T04:57:14;5.43;;;2.38;;
19903;SDS011;10114;50.970;4.962;2024-01-15T04:59:40;4.18;;;2.42;;
19903;SDS011;10114;50.970;4.962;2024-01-15T05:02:06;2.28;;;1.38;;
19903;SDS011;10114;50.970;4.962;2024-01-15T05:04:32;2.80;;;1.65;;
19903;SDS011;10114;50.970;4.962;2024-01-15T05:06:58;4.50;;;2.03;;
19903;SDS011;10114;50.970;4.962;2024-01-15T05:09:24;7.50;;;2.50;;
19903;SDS011;10114;50.970;4.962;2024-01-15T05:11:50;8.43;;;2.38;;
19903;SDS011;10114;50.970;4.962;2024-01-15T05:14:16;4.72;;;2.33;;
19903;SDS011;10114;50.970;4.962;2024-01-15T05:16:51;4.00;;;2.15;;
19903;SDS011;10114;50.970;4.962;2024-01-15T05:19:18;5.38;;;2.17;;
19903;SDS011;10114;50.970;4.962;2024-01-15T05:21:44;6.95;;;2.83;;
19903;SDS011;10114;50.970;4.962;2024-01-15T05:24:10;5.68;;;2.67;;
19903;SDS011;10114;50.970;4.962;2024-01-15T05:26:36;4.70;;;1.92;;
19903;SDS011;10114;50.970;4.962;2024-01-15T05:29:02;4.63;;;1.75;;
19903;SDS011;10114;50.970;4.962;2024-01-15T05:31:28;6.20;;;1.42;;
19903;SDS011;10114;50.970;4.962;2024-01-15T05:33:54;4.95;;;2.00;;
19903;SDS011;10114;50.970;4.962;2024-01-15T05:36:20;3.15;;;1.73;;
19903;SDS011;10114;50.970;4.962;2024-01-15T05:38:47;3.92;;;2.22;;
19903;SDS011;10114;50.970;4.962;2024-01-15T05:41:13;7.57;;;3.08;;
19903;SDS011;10114;50.970;4.962;2024-01-15T05:43:39;1.95;;;1.38;;
19903;SDS011;10114;50.970;4.962;2024-01-15T05:46:05;6.20;;;3.50;;
19903;SDS011;10114;50.970;4.962;2024-01-15T05:48:31;4.10;;;1.73;;
19903;SDS011;10114;50.970;4.962;2024-01-15T05:50:57;8.95;;;2.33;;
19903;SDS011;10114;50.970;4.962;2024-01-15T05:53:24;2.10;;;1.45;;
19903;SDS011;10114;50.970;4.962;2024-01-15T05:55:50;4.90;;;2.08;;
19903;SDS011;10114;50.970;4.962;2024-01-15T05:58:16;5.22;;;2.20;;
19903;SDS011;10114;50.970;4.962;2024-01-15T06:00:42;3.00;;;2.15;;
19903;SDS011;10114;50.970;4.962;2024-01-15T06:03:08;3.72;;;1.67;;
19903;SDS011;10114;50.970;4.962;2024-01-15T06:05:35;5.40;;;2.15;;
19903;SDS011;10114;50.970;4.962;2024-01-15T06:08:01;5.70;;;1.90;;
19903;SDS011;10114;50.970;4.962;2024-01-15T06:10:28;11.52;;;2.38;;
19903;SDS011;10114;50.970;4.962;2024-01-15T06:12:55;12.15;;;2.95;;
19903;SDS011;10114;50.970;4.962;2024-01-15T06:15:21;3.75;;;2.13;;
19903;SDS011;10114;50.970;4.962;2024-01-15T06:17:47;4.00;;;2.35;;
19903;SDS011;10114;50.970;4.962;2024-01-15T06:20:15;6.90;;;1.55;;
19903;SDS011;10114;50.970;4.962;2024-01-15T06:22:41;3.92;;;2.03;;
19903;SDS011;10114;50.970;4.962;2024-01-15T06:25:07;4.95;;;1.52;;
19903;SDS011;10114;50.970;4.962;2024-01-15T06:27:33;6.45;;;2.33;;
19903;SDS011;10114;50.970;4.962;2024-01-15T06:29:59;6.40;;;1.92;;
19903;SDS011;10114;50.970;4.962;2024-01-15T06:32:25;7.20;;;1.85;;
19903;SDS011;10114;50.970;4.962;2024-01-15T06:34:51;2.88;;;1.48;;
19903;SDS011;10114;50.970;4.962;2024-01-15T06:37:17;1.35;;;0.95;;
19903;SDS011;10114;50.970;4.962;2024-01-15T06:39:45;1.30;;;0.93;;
19903;SDS011;10114;50.970;4.962;2024-01-15T06:42:11;3.22;;;1.90;;
19903;SDS011;10114;50.970;4.962;2024-01-15T06:44:37;6.50;;;1.27;;
19903;SDS011;10114;50.970;4.962;2024-01-15T06:47:03;1.63;;;0.98;;
19903;SDS011;10114;50.970;4.962;2024-01-15T06:49:29;3.50;;;1.48;;
19903;SDS011;10114;50.970;4.962;2024-01-15T06:51:55;7.72;;;1.80;;
19903;SDS011;10114;50.970;4.962;2024-01-15T06:54:22;1.02;;;0.80;;
19903;SDS011;10114;50.970;4.962;2024-01-15T06:56:48;1.55;;;0.95;;
19903;SDS011;10114;50.970;4.962;2024-01-15T06:59:15;0.85;;;0.50;;
19903;SDS011;10114;50.970;4.962;2024-01-15T07:01:41;6.35;;;2.08;;
19903;SDS011;10114;50.970;4.962;2024-01-15T07:04:07;4.70;;;3.53;;
19903;SDS011;10114;50.970;4.962;2024-01-15T07:06:33;1.27;;;1.13;;
19903;SDS011;10114;50.970;4.962;2024-01-15T07:08:59;3.85;;;1.40;;
19903;SDS011;10114;50.970;4.962;2024-01-15T07:11:25;1.38;;;0.60;;
19903;SDS011;10114;50.970;4.962;2024-01-15T07:13:51;2.40;;;1.50;;
19903;SDS011;10114;50.970;4.962;2024-01-15T07:16:17;4.57;;;2.58;;
19903;SDS011;10114;50.970;4.962;2024-01-15T07:18:43;2.65;;;1.40;;
19903;SDS011;10114;50.970;4.962;2024-01-15T07:21:09;1.38;;;0.88;;
19903;SDS011;10114;50.970;4.962;2024-01-15T07:23:35;2.42;;;1.45;;
19903;SDS011;10114;50.970;4.962;2024-01-15T07:26:01;0.98;;;0.60;;
19903;SDS011;10114;50.970;4.962;2024-01-15T07:28:30;3.05;;;1.75;;
19903;SDS011;10114;50.970;4.962;2024-01-15T07:30:57;0.85;;;0.50;;
19903;SDS011;10114;50.970;4.962;2024-01-15T07:33:23;1.48;;;0.50;;
19903;SDS011;10114;50.970;4.962;2024-01-15T07:35:49;4.75;;;1.27;;
19903;SDS011;10114;50.970;4.962;2024-01-15T07:38:15;1.13;;;0.68;;
19903;SDS011;10114;50.970;4.962;2024-01-15T07:40:41;1.67;;;0.80;;
19903;SDS011;10114;50.970;4.962;2024-01-15T07:43:07;1.73;;;0.80;;
19903;SDS011;10114;50.970;4.962;2024-01-15T07:45:33;0.63;;;0.52;;
19903;SDS011;10114;50.970;4.962;2024-01-15T07:47:59;0.32;;;0.32;;
19903;SDS011;10114;50.970;4.962;2024-01-15T07:50:25;1.10;;;0.80;;
19903;SDS011;10114;50.970;4.962;2024-01-15T07:52:51;0.20;;;0.20;;
19903;SDS011;10114;50.970;4.962;2024-01-15T07:55:18;0.50;;;0.30;;
19903;SDS011;10114;50.970;4.962;2024-01-15T07:57:44;0.45;;;0.45;;
19903;SDS011;10114;50.970;4.962;2024-01-15T08:00:11;0.40;;;0.40;;
19903;SDS011;10114;50.970;4.962;2024-01-15T08:02:37;1.27;;;0.65;;
19903;SDS011;10114;50.970;4.962;2024-01-15T08:05:03;0.47;;;0.47;;
19903;SDS011;10114;50.970;4.962;2024-01-15T08:07:30;1.77;;;0.82;;
19903;SDS011;10114;50.970;4.962;2024-01-15T08:09:56;2.83;;;0.82;;
19903;SDS011;10114;50.970;4.962;2024-01-15T08:12:23;1.00;;;0.65;;
19903;SDS011;10114;50.970;4.962;2024-01-15T08:14:49;1.33;;;0.88;;
19903;SDS011;10114;50.970;4.962;2024-01-15T08:17:15;0.52;;;0.50;;
19903;SDS011;10114;50.970;4.962;2024-01-15T08:19:41;0.70;;;0.60;;
19903;SDS011;10114;50.970;4.962;2024-01-15T08:22:07;0.80;;;0.57;;
19903;SDS011;10114;50.970;4.962;2024-01-15T08:24:34;0.30;;;0.30;;
19903;SDS011;10114;50.970;4.962;2024-01-15T08:27:01;0.73;;;0.68;;
19903;SDS011;10114;50.970;4.962;2024-01-15T08:29:27;0.55;;;0.32;;
19903;SDS011;10114;50.970;4.962;2024-01-15T08:31:53;0.80;;;0.60;;
19903;SDS011;10114;50.970;4.962;2024-01-15T08:34:19;1.85;;;0.98;;
19903;SDS011;10114;50.970;4.962;2024-01-15T08:36:45;1.23;;;0.95;;
19903;SDS011;10114;50.970;4.962;2024-01-15T08:39:11;0.65;;;0.50;;
19903;SDS011;10114;50.970;4.962;2024-01-15T08:41:37;2.72;;;1.23;;
19903;SDS011;10114;50.970;4.962;2024-01-15T08:44:03;2.40;;;0.77;;
19903;SDS011;10114;50.970;4.962;2024-01-15T08:46:29;5.80;;;0.73;;
19903;SDS011;10114;50.970;4.962;2024-01-15T08:48:55;1.48;;;0.95;;
19903;SDS011;10114;50.970;4.962;2024-01-15T08:51:21;2.10;;;0.88;;
19903;SDS011;10114;50.970;4.962;2024-01-15T08:53:47;1.95;;;0.60;;
19903;SDS011;10114;50.970;4.962;2024-01-15T08:56:13;1.05;;;0.47;;
19903;SDS011;10114;50.970;4.962;2024-01-15T08:58:39;11.10;;;1.48;;
19903;SDS011;10114;50.970;4.962;2024-01-15T09:01:05;0.52;;;0.45;;
19903;SDS011;10114;50.970;4.962;2024-01-15T09:03:31;0.77;;;0.70;;
19903;SDS011;10114;50.970;4.962;2024-01-15T09:05:59;0.82;;;0.50;;
19903;SDS011;10114;50.970;4.962;2024-01-15T09:08:25;0.30;;;0.30;;
19903;SDS011;10114;50.970;4.962;2024-01-15T09:10:52;2.17;;;1.00;;
19903;SDS011;10114;50.970;4.962;2024-01-15T09:13:18;0.77;;;0.52;;
19903;SDS011;10114;50.970;4.962;2024-01-15T09:15:44;5.10;;;1.40;;
19903;SDS011;10114;50.970;4.962;2024-01-15T09:18:10;1.38;;;0.65;;
19903;SDS011;10114;50.970;4.962;2024-01-15T09:20:36;0.50;;;0.50;;
19903;SDS011;10114;50.970;4.962;2024-01-15T09:23:03;0.73;;;0.45;;
19903;SDS011;10114;50.970;4.962;2024-01-15T09:25:29;0.60;;;0.40;;
19903;SDS011;10114;50.970;4.962;2024-01-15T09:27:55;0.70;;;0.70;;
19903;SDS011;10114;50.970;4.962;2024-01-15T09:30:22;1.42;;;0.70;;
19903;SDS011;10114;50.970;4.962;2024-01-15T09:32:48;1.45;;;0.55;;
19903;SDS011;10114;50.970;4.962;2024-01-15T09:35:14;2.90;;;0.85;;
19903;SDS011;10114;50.970;4.962;2024-01-15T09:37:40;5.38;;;1.35;;
19903;SDS011;10114;50.970;4.962;2024-01-15T09:40:06;2.92;;;1.00;;
19903;SDS011;10114;50.970;4.962;2024-01-15T09:42:33;2.22;;;0.70;;
19903;SDS011;10114;50.970;4.962;2024-01-15T09:45:00;2.85;;;0.63;;
19903;SDS011;10114;50.970;4.962;2024-01-15T09:47:28;2.55;;;1.35;;
19903;SDS011;10114;50.970;4.962;2024-01-15T09:49:55;1.45;;;0.63;;
19903;SDS011;10114;50.970;4.962;2024-01-15T09:52:23;0.85;;;0.43;;
19903;SDS011;10114;50.970;4.962;2024-01-15T09:54:49;0.52;;;0.45;;
19903;SDS011;10114;50.970;4.962;2024-01-15T09:57:16;12.73;;;0.80;;
19903;SDS011;10114;50.970;4.962;2024-01-15T09:59:42;0.35;;;0.28;;
19903;SDS011;10114;50.970;4.962;2024-01-15T10:02:08;2.72;;;1.00;;
19903;SDS011;10114;50.970;4.962;2024-01-15T10:04:35;0.80;;;0.57;;
19903;SDS011;10114;50.970;4.962;2024-01-15T10:07:01;0.30;;;0.30;;
19903;SDS011;10114;50.970;4.962;2024-01-15T10:09:27;0.88;;;0.63;;
19903;SDS011;10114;50.970;4.962;2024-01-15T10:11:53;1.95;;;0.68;;
19903;SDS011;10114;50.970;4.962;2024-01-15T10:14:19;0.30;;;0.30;;
19903;SDS011;10114;50.970;4.962;2024-01-15T10:16:45;0.75;;;0.75;;
19903;SDS011;10114;50.970;4.962;2024-01-15T10:19:11;3.40;;;0.60;;
19903;SDS011;10114;50.970;4.962;2024-01-15T10:21:37;0.60;;;0.60;;
19903;SDS011;10114;50.970;4.962;2024-01-15T10:24:04;2.17;;;0.55;;
19903;SDS011;10114;50.970;4.962;2024-01-15T10:26:30;0.50;;;0.40;;
19903;SDS011;10114;50.970;4.962;2024-01-15T10:28:58;1.05;;;0.50;;
19903;SDS011;10114;50.970;4.962;2024-01-15T10:31:25;1.23;;;0.63;;
19903;SDS011;10114;50.970;4.962;2024-01-15T10:33:52;0.95;;;0.70;;
19903;SDS011;10114;50.970;4.962;2024-01-15T10:36:18;2.53;;;0.50;;
19903;SDS011;10114;50.970;4.962;2024-01-15T10:38:44;0.95;;;0.73;;
19903;SDS011;10114;50.970;4.962;2024-01-15T10:41:11;0.30;;;0.30;;
19903;SDS011;10114;50.970;4.962;2024-01-15T10:43:37;0.75;;;0.52;;
19903;SDS011;10114;50.970;4.962;2024-01-15T10:46:03;0.38;;;0.38;;
19903;SDS011;10114;50.970;4.962;2024-01-15T10:48:29;1.40;;;0.68;;
19903;SDS011;10114;50.970;4.962;2024-01-15T10:51:00;1.58;;;0.75;;
19903;SDS011;10114;50.970;4.962;2024-01-15T10:53:35;0.77;;;0.63;;
19903;SDS011;10114;50.970;4.962;2024-01-15T10:56:01;1.27;;;0.45;;
19903;SDS011;10114;50.970;4.962;2024-01-15T10:58:28;1.08;;;0.73;;
19903;SDS011;10114;50.970;4.962;2024-01-15T11:00:57;0.40;;;0.30;;
19903;SDS011;10114;50.970;4.962;2024-01-15T11:03:23;0.35;;;0.35;;
19903;SDS011;10114;50.970;4.962;2024-01-15T11:05:49;0.40;;;0.40;;
19903;SDS011;10114;50.970;4.962;2024-01-15T11:08:17;5.85;;;2.03;;
19903;SDS011;10114;50.970;4.962;2024-01-15T11:10:45;2.65;;;1.17;;
19903;SDS011;10114;50.970;4.962;2024-01-15T11:13:15;0.40;;;0.32;;
19903;SDS011;10114;50.970;4.962;2024-01-15T11:15:57;0.32;;;0.30;;
19903;SDS011;10114;50.970;4.962;2024-01-15T11:18:23;9.38;;;1.13;;
19903;SDS011;10114;50.970;4.962;2024-01-15T11:23:46;3.15;;;0.98;;
19903;SDS011;10114;50.970;4.962;2024-01-15T11:27:13;2.10;;;0.45;;
19903;SDS011;10114;50.970;4.962;2024-01-15T11:29:10;0.50;;;0.40;;
19903;SDS011;10114;50.970;4.962;2024-01-15T11:34:09;0.60;;;0.47;;
19903;SDS011;10114;50.970;4.962;2024-01-15T11:41:58;0.47;;;0.40;;
19903;SDS011;10114;50.970;4.962;2024-01-15T11:44:25;0.65;;;0.30;;
19903;SDS011;10114;50.970;4.962;2024-01-15T11:46:57;1.65;;;0.63;;
19903;SDS011;10114;50.970;4.962;2024-01-15T11:49:26;3.17;;;0.57;;
19903;SDS011;10114;50.970;4.962;2024-01-15T11:51:57;0.75;;;0.65;;
19903;SDS011;10114;50.970;4.962;2024-01-15T11:54:24;0.52;;;0.40;;
19903;SDS011;10114;50.970;4.962;2024-01-15T11:56:51;0.68;;;0.50;;
19903;SDS011;10114;50.970;4.962;2024-01-15T11:59:18;1.08;;;0.80;;
19903;SDS011;10114;50.970;4.962;2024-01-15T12:01:44;0.40;;;0.40;;
19903;SDS011;10114;50.970;4.962;2024-01-15T12:04:10;0.98;;;0.30;;
19903;SDS011;10114;50.970;4.962;2024-01-15T12:06:36;0.40;;;0.40;;
19903;SDS011;10114;50.970;4.962;2024-01-15T12:09:05;1.85;;;1.02;;
19903;SDS011;10114;50.970;4.962;2024-01-15T12:11:31;18.73;;;2.50;;
19903;SDS011;10114;50.970;4.962;2024-01-15T12:13:59;0.60;;;0.60;;
19903;SDS011;10114;50.970;4.962;2024-01-15T12:16:25;0.30;;;0.30;;
19903;SDS011;10114;50.970;4.962;2024-01-15T12:18:51;0.30;;;0.30;;
19903;SDS011;10114;50.970;4.962;2024-01-15T12:21:17;0.95;;;0.73;;
19903;SDS011;10114;50.970;4.962;2024-01-15T12:23:46;0.80;;;0.60;;
19903;SDS011;10114;50.970;4.962;2024-01-15T12:26:13;0.40;;;0.40;;
19903;SDS011;10114;50.970;4.962;2024-01-15T12:28:39;0.50;;;0.50;;
19903;SDS011;10114;50.970;4.962;2024-01-15T12:31:05;0.85;;;0.77;;
19903;SDS011;10114;50.970;4.962;2024-01-15T12:33:32;0.80;;;0.80;;
19903;SDS011;10114;50.970;4.962;2024-01-15T12:35:58;0.50;;;0.50;;
19903;SDS011;10114;50.970;4.962;2024-01-15T12:38:24;0.50;;;0.50;;
19903;SDS011;10114;50.970;4.962;2024-01-15T12:40:51;0.50;;;0.50;;
19903;SDS011;10114;50.970;4.962;2024-01-15T12:43:17;0.50;;;0.50;;
19903;SDS011;10114;50.970;4.962;2024-01-15T12:45:43;0.70;;;0.70;;
19903;SDS011;10114;50.970;4.962;2024-01-15T12:48:09;0.80;;;0.80;;
19903;SDS011;10114;50.970;4.962;2024-01-15T12:50:36;0.90;;;0.90;;
19903;SDS011;10114;50.970;4.962;2024-01-15T12:53:02;1.23;;;1.08;;
19903;SDS011;10114;50.970;4.962;2024-01-15T12:55:28;0.70;;;0.70;;
19903;SDS011;10114;50.970;4.962;2024-01-15T12:57:54;0.80;;;0.80;;
19903;SDS011;10114;50.970;4.962;2024-01-15T13:00:20;0.80;;;0.80;;
19903;SDS011;10114;50.970;4.962;2024-01-15T13:02:46;0.68;;;0.68;;
19903;SDS011;10114;50.970;4.962;2024-01-15T13:05:12;0.70;;;0.70;;
19903;SDS011;10114;50.970;4.962;2024-01-15T13:07:38;2.38;;;0.80;;
19903;SDS011;10114;50.970;4.962;2024-01-15T13:10:05;0.55;;;0.55;;
19903;SDS011;10114;50.970;4.962;2024-01-15T13:12:31;0.50;;;0.50;;
19903;SDS011;10114;50.970;4.962;2024-01-15T13:14:58;0.60;;;0.60;;
19903;SDS011;10114;50.970;4.962;2024-01-15T13:17:24;3.03;;;0.75;;
19903;SDS011;10114;50.970;4.962;2024-01-15T13:19:50;0.55;;;0.55;;
19903;SDS011;10114;50.970;4.962;2024-01-15T13:22:16;0.40;;;0.40;;
19903;SDS011;10114;50.970;4.962;2024-01-15T13:24:42;0.40;;;0.40;;
19903;SDS011;10114;50.970;4.962;2024-01-15T13:27:08;0.45;;;0.45;;
19903;SDS011;10114;50.970;4.962;2024-01-15T13:29:34;0.98;;;0.47;;
19903;SDS011;10114;50.970;4.962;2024-01-15T13:32:00;1.17;;;0.98;;
19903;SDS011;10114;50.970;4.962;2024-01-15T13:34:26;0.40;;;0.40;;
19903;SDS011;10114;50.970;4.962;2024-01-15T13:36:52;0.40;;;0.40;;
19903;SDS011;10114;50.970;4.962;2024-01-15T13:39:18;0.30;;;0.30;;
19903;SDS011;10114;50.970;4.962;2024-01-15T13:41:48;0.43;;;0.43;;
19903;SDS011;10114;50.970;4.962;2024-01-15T13:44:15;0.40;;;0.40;;
19903;SDS011;10114;50.970;4.962;2024-01-15T13:46:41;0.98;;;0.77;;
19903;SDS011;10114;50.970;4.962;2024-01-15T13:49:07;1.00;;;0.93;;
19903;SDS011;10114;50.970;4.962;2024-01-15T13:51:34;0.47;;;0.47;;
19903;SDS011;10114;50.970;4.962;2024-01-15T13:54:01;0.55;;;0.55;;
19903;SDS011;10114;50.970;4.962;2024-01-15T13:56:29;0.77;;;0.60;;
19903;SDS011;10114;50.970;4.962;2024-01-15T13:58:57;0.47;;;0.47;;
19903;SDS011;10114;50.970;4.962;2024-01-15T14:01:23;1.73;;;1.55;;
19903;SDS011;10114;50.970;4.962;2024-01-15T14:03:49;0.30;;;0.30;;
19903;SDS011;10114;50.970;4.962;2024-01-15T14:06:15;0.30;;;0.30;;
19903;SDS011;10114;50.970;4.962;2024-01-15T14:08:41;0.55;;;0.50;;
19903;SDS011;10114;50.970;4.962;2024-01-15T14:11:07;0.38;;;0.38;;
19903;SDS011;10114;50.970;4.962;2024-01-15T14:13:35;0.32;;;0.32;;
19903;SDS011;10114;50.970;4.962;2024-01-15T14:16:01;0.43;;;0.40;;
19903;SDS011;10114;50.970;4.962;2024-01-15T14:18:27;0.43;;;0.40;;
19903;SDS011;10114;50.970;4.962;2024-01-15T14:20:53;0.57;;;0.55;;
19903;SDS011;10114;50.970;4.962;2024-01-15T14:23:20;0.50;;;0.50;;
19903;SDS011;10114;50.970;4.962;2024-01-15T14:25:46;0.80;;;0.80;;
19903;SDS011;10114;50.970;4.962;2024-01-15T14:28:12;0.43;;;0.43;;
19903;SDS011;10114;50.970;4.962;2024-01-15T14:30:38;0.63;;;0.50;;
19903;SDS011;10114;50.970;4.962;2024-01-15T14:33:04;0.47;;;0.47;;
19903;SDS011;10114;50.970;4.962;2024-01-15T14:35:30;0.45;;;0.45;;
19903;SDS011;10114;50.970;4.962;2024-01-15T14:37:56;0.47;;;0.47;;
19903;SDS011;10114;50.970;4.962;2024-01-15T14:40:23;0.50;;;0.50;;
19903;SDS011;10114;50.970;4.962;2024-01-15T14:42:49;0.32;;;0.32;;
19903;SDS011;10114;50.970;4.962;2024-01-15T14:45:16;0.30;;;0.30;;
19903;SDS011;10114;50.970;4.962;2024-01-15T14:47:42;0.73;;;0.60;;
19903;SDS011;10114;50.970;4.962;2024-01-15T14:50:09;1.10;;;0.88;;
19903;SDS011;10114;50.970;4.962;2024-01-15T14:52:35;0.52;;;0.52;;
19903;SDS011;10114;50.970;4.962;2024-01-15T14:55:01;0.50;;;0.50;;